sensor_id;sensor_type;location;lat;lon;timestamp;temperature;humidity
39519;DHT22;25200;53.394;10.414;2023-01-20T00:02:01;1.30;91.50
39519;DHT22;25200;53.394;10.414;2023-01-20T00:04:26;1.30;91.50
39519;DHT22;25200;53.394;10.414;2023-01-20T00:06:53;1.30;91.50
39519;DHT22;25200;53.394;10.414;2023-01-20T00:09:18;1.30;91.50
39519;DHT22;25200;53.394;10.414;2023-01-20T00:11:45;1.20;91.50
39519;DHT22;25200;53.394;10.414;2023-01-20T00:14:11;1.30;91.70
39519;DHT22;25200;53.394;10.414;2023-01-20T00:16:37;1.20;91.50
39519;DHT22;25200;53.394;10.414;2023-01-20T00:19:02;1.30;91.50
39519;DHT22;25200;53.394;10.414;2023-01-20T00:21:28;1.30;91.60
39519;DHT22;25200;53.394;10.414;2023-01-20T00:23:54;1.30;91.50
39519;DHT22;25200;53.394;10.414;2023-01-20T00:26:22;1.30;91.50
39519;DHT22;25200;53.394;10.414;2023-01-20T00:28:49;1.30;91.50
39519;DHT22;25200;53.394;10.414;2023-01-20T00:31:18;1.30;91.50
39519;DHT22;25200;53.394;10.414;2023-01-20T00:33:45;1.30;91.50
39519;DHT22;25200;53.394;10.414;2023-01-20T00:36:13;1.30;91.50
39519;DHT22;25200;53.394;10.414;2023-01-20T00:38:39;1.30;91.50
39519;DHT22;25200;53.394;10.414;2023-01-20T00:41:05;1.30;91.50
39519;DHT22;25200;53.394;10.414;2023-01-20T00:43:31;1.30;91.50
39519;DHT22;25200;53.394;10.414;2023-01-20T00:45:57;1.30;91.50
39519;DHT22;25200;53.394;10.414;2023-01-20T00:48:23;1.30;91.50
39519;DHT22;25200;53.394;10.414;2023-01-20T00:50:48;1.30;91.50
39519;DHT22;25200;53.394;10.414;2023-01-20T00:53:14;1.20;91.50
39519;DHT22;25200;53.394;10.414;2023-01-20T00:55:39;1.20;91.50
39519;DHT22;25200;53.394;10.414;2023-01-20T00:58:05;1.20;91.50
39519;DHT22;25200;53.394;10.414;2023-01-20T01:00:31;1.30;91.50
39519;DHT22;25200;53.394;10.414;2023-01-20T01:02:56;1.20;91.50
39519;DHT22;25200;53.394;10.414;2023-01-20T01:05:22;1.20;91.50
39519;DHT22;25200;53.394;10.414;2023-01-20T01:07:48;1.20;91.50
39519;DHT22;25200;53.394;10.414;2023-01-20T01:10:13;1.30;91.50
39519;DHT22;25200;53.394;10.414;2023-01-20T01:12:39;1.30;91.50
39519;DHT22;25200;53.394;10.414;2023-01-20T01:15:05;1.30;91.50
39519;DHT22;25200;53.394;10.414;2023-01-20T01:17:31;1.30;91.50
39519;DHT22;25200;53.394;10.414;2023-01-20T01:19:57;1.30;91.50
39519;DHT22;25200;53.394;10.414;2023-01-20T01:22:23;1.30;91.50
39519;DHT22;25200;53.394;10.414;2023-01-20T01:24:48;1.30;91.50
39519;DHT22;25200;53.394;10.414;2023-01-20T01:27:14;1.30;91.50
39519;DHT22;25200;53.394;10.414;2023-01-20T01:29:40;1.30;91.50
39519;DHT22;25200;53.394;10.414;2023-01-20T01:32:06;1.30;91.50
39519;DHT22;25200;53.394;10.414;2023-01-20T01:34:32;1.30;91.50
39519;DHT22;25200;53.394;10.414;2023-01-20T01:36:58;1.30;91.40
39519;DHT22;25200;53.394;10.414;2023-01-20T01:39:24;1.30;91.50
39519;DHT22;25200;53.394;10.414;2023-01-20T01:41:50;1.30;91.50
39519;DHT22;25200;53.394;10.414;2023-01-20T01:44:16;1.30;91.50
39519;DHT22;25200;53.394;10.414;2023-01-20T01:46:41;1.30;91.50
39519;DHT22;25200;53.394;10.414;2023-01-20T01:51:47;1.30;91.50
39519;DHT22;25200;53.394;10.414;2023-01-20T01:54:17;1.30;91.50
39519;DHT22;25200;53.394;10.414;2023-01-20T01:56:45;1.30;91.50
39519;DHT22;25200;53.394;10.414;2023-01-20T01:59:14;1.20;91.50
39519;DHT22;25200;53.394;10.414;2023-01-20T02:01:45;1.20;91.50
39519;DHT22;25200;53.394;10.414;2023-01-20T02:04:14;1.20;91.40
39519;DHT22;25200;53.394;10.414;2023-01-20T02:06:46;1.20;91.50
39519;DHT22;25200;53.394;10.414;2023-01-20T02:09:12;1.20;91.50
39519;DHT22;25200;53.394;10.414;2023-01-20T02:11:44;1.10;91.50
39519;DHT22;25200;53.394;10.414;2023-01-20T02:14:17;1.10;91.40
39519;DHT22;25200;53.394;10.414;2023-01-20T02:28:17;1.00;91.40
39519;DHT22;25200;53.394;10.414;2023-01-20T02:39:19;0.90;91.40
39519;DHT22;25200;53.394;10.414;2023-01-20T02:50:12;0.90;91.70
39519;DHT22;25200;53.394;10.414;2023-01-20T02:52:44;0.90;91.70
39519;DHT22;25200;53.394;10.414;2023-01-20T02:55:13;0.90;91.80
39519;DHT22;25200;53.394;10.414;2023-01-20T02:57:44;1.00;91.70
39519;DHT22;25200;53.394;10.414;2023-01-20T03:00:58;1.00;91.60
39519;DHT22;25200;53.394;10.414;2023-01-20T03:03:10;1.00;91.60
39519;DHT22;25200;53.394;10.414;2023-01-20T03:05:41;1.00;91.80
39519;DHT22;25200;53.394;10.414;2023-01-20T03:08:12;1.00;91.70
39519;DHT22;25200;53.394;10.414;2023-01-20T03:10:39;1.00;91.70
39519;DHT22;25200;53.394;10.414;2023-01-20T03:16:05;1.00;91.70
39519;DHT22;25200;53.394;10.414;2023-01-20T03:18:32;1.00;91.70
39519;DHT22;25200;53.394;10.414;2023-01-20T03:20:59;1.10;91.80
39519;DHT22;25200;53.394;10.414;2023-01-20T03:23:27;1.10;91.70
39519;DHT22;25200;53.394;10.414;2023-01-20T03:25:54;1.10;91.70
39519;DHT22;25200;53.394;10.414;2023-01-20T03:28:21;1.10;91.70
39519;DHT22;25200;53.394;10.414;2023-01-20T03:30:46;1.10;91.60
39519;DHT22;25200;53.394;10.414;2023-01-20T03:33:14;1.10;91.60
39519;DHT22;25200;53.394;10.414;2023-01-20T03:35:40;1.10;91.60
39519;DHT22;25200;53.394;10.414;2023-01-20T03:38:06;1.10;91.50
39519;DHT22;25200;53.394;10.414;2023-01-20T03:40:39;1.00;91.50
39519;DHT22;25200;53.394;10.414;2023-01-20T03:46:02;1.00;91.60
39519;DHT22;25200;53.394;10.414;2023-01-20T03:48:49;1.00;91.60
39519;DHT22;25200;53.394;10.414;2023-01-20T03:54:18;1.00;91.60
39519;DHT22;25200;53.394;10.414;2023-01-20T03:56:55;1.00;91.60
39519;DHT22;25200;53.394;10.414;2023-01-20T03:59:33;1.00;91.70
39519;DHT22;25200;53.394;10.414;2023-01-20T04:02:04;1.00;91.70
39519;DHT22;25200;53.394;10.414;2023-01-20T04:04:33;1.00;91.70
39519;DHT22;25200;53.394;10.414;2023-01-20T04:07:04;1.00;91.80
39519;DHT22;25200;53.394;10.414;2023-01-20T04:09:34;1.00;91.70
39519;DHT22;25200;53.394;10.414;2023-01-20T04:12:02;1.00;91.80
39519;DHT22;25200;53.394;10.414;2023-01-20T04:14:28;1.00;92.00
39519;DHT22;25200;53.394;10.414;2023-01-20T04:16:55;1.00;91.80
39519;DHT22;25200;53.394;10.414;2023-01-20T04:19:22;1.00;91.80
39519;DHT22;25200;53.394;10.414;2023-01-20T04:21:56;1.10;91.90
39519;DHT22;25200;53.394;10.414;2023-01-20T04:24:25;1.10;91.80
39519;DHT22;25200;53.394;10.414;2023-01-20T04:26:53;1.10;91.90
39519;DHT22;25200;53.394;10.414;2023-01-20T04:29:18;1.10;92.00
39519;DHT22;25200;53.394;10.414;2023-01-20T04:31:44;1.20;92.00
39519;DHT22;25200;53.394;10.414;2023-01-20T04:34:13;1.20;92.00
39519;DHT22;25200;53.394;10.414;2023-01-20T04:36:42;1.20;92.00
39519;DHT22;25200;53.394;10.414;2023-01-20T04:39:08;1.20;91.90
39519;DHT22;25200;53.394;10.414;2023-01-20T04:41:33;1.20;92.00
39519;DHT22;25200;53.394;10.414;2023-01-20T04:43:59;1.30;91.90
39519;DHT22;25200;53.394;10.414;2023-01-20T04:46:25;1.30;91.90
39519;DHT22;25200;53.394;10.414;2023-01-20T04:48:50;1.30;92.20
39519;DHT22;25200;53.394;10.414;2023-01-20T04:51:16;1.30;92.00
39519;DHT22;25200;53.394;10.414;2023-01-20T04:53:41;1.30;92.00
39519;DHT22;25200;53.394;10.414;2023-01-20T04:56:14;1.30;92.00
39519;DHT22;25200;53.394;10.414;2023-01-20T04:58:40;1.40;91.90
39519;DHT22;25200;53.394;10.414;2023-01-20T05:01:07;1.40;92.10
39519;DHT22;25200;53.394;10.414;2023-01-20T05:03:33;1.40;92.10
39519;DHT22;25200;53.394;10.414;2023-01-20T05:05:59;1.40;92.20
39519;DHT22;25200;53.394;10.414;2023-01-20T05:08:25;1.40;92.10
39519;DHT22;25200;53.394;10.414;2023-01-20T05:10:50;1.40;91.90
39519;DHT22;25200;53.394;10.414;2023-01-20T05:13:16;1.40;92.10
39519;DHT22;25200;53.394;10.414;2023-01-20T05:15:43;1.40;92.10
39519;DHT22;25200;53.394;10.414;2023-01-20T05:18:08;1.40;92.10
39519;DHT22;25200;53.394;10.414;2023-01-20T05:20:34;1.40;92.20
39519;DHT22;25200;53.394;10.414;2023-01-20T05:23:00;1.50;92.20
39519;DHT22;25200;53.394;10.414;2023-01-20T05:25:25;1.50;92.10
39519;DHT22;25200;53.394;10.414;2023-01-20T05:27:51;1.50;92.10
39519;DHT22;25200;53.394;10.414;2023-01-20T05:30:17;1.50;92.10
39519;DHT22;25200;53.394;10.414;2023-01-20T05:32:48;1.50;92.20
39519;DHT22;25200;53.394;10.414;2023-01-20T05:35:14;1.50;92.20
39519;DHT22;25200;53.394;10.414;2023-01-20T05:37:40;1.50;92.20
39519;DHT22;25200;53.394;10.414;2023-01-20T05:40:06;1.50;92.20
39519;DHT22;25200;53.394;10.414;2023-01-20T05:42:32;1.60;92.00
39519;DHT22;25200;53.394;10.414;2023-01-20T05:44:58;1.60;92.20
39519;DHT22;25200;53.394;10.414;2023-01-20T05:47:23;1.60;92.00
39519;DHT22;25200;53.394;10.414;2023-01-20T05:49:49;1.60;91.90
39519;DHT22;25200;53.394;10.414;2023-01-20T05:52:15;1.60;91.90
39519;DHT22;25200;53.394;10.414;2023-01-20T05:54:40;1.60;91.90
39519;DHT22;25200;53.394;10.414;2023-01-20T05:57:06;1.60;91.90
39519;DHT22;25200;53.394;10.414;2023-01-20T05:59:32;1.60;91.90
39519;DHT22;25200;53.394;10.414;2023-01-20T06:01:57;1.60;91.90
39519;DHT22;25200;53.394;10.414;2023-01-20T06:04:23;1.70;91.90
39519;DHT22;25200;53.394;10.414;2023-01-20T06:06:49;1.70;92.00
39519;DHT22;25200;53.394;10.414;2023-01-20T06:09:14;1.70;91.90
39519;DHT22;25200;53.394;10.414;2023-01-20T06:11:40;1.70;92.00
39519;DHT22;25200;53.394;10.414;2023-01-20T06:14:06;1.70;91.80
39519;DHT22;25200;53.394;10.414;2023-01-20T06:16:31;1.70;91.80
39519;DHT22;25200;53.394;10.414;2023-01-20T06:18:57;1.70;91.80
39519;DHT22;25200;53.394;10.414;2023-01-20T06:21:23;1.70;91.80
39519;DHT22;25200;53.394;10.414;2023-01-20T06:23:49;1.70;91.90
39519;DHT22;25200;53.394;10.414;2023-01-20T06:26:15;1.70;91.80
39519;DHT22;25200;53.394;10.414;2023-01-20T06:28:41;1.70;91.80
39519;DHT22;25200;53.394;10.414;2023-01-20T06:31:12;1.70;91.80
39519;DHT22;25200;53.394;10.414;2023-01-20T06:33:38;1.70;91.90
39519;DHT22;25200;53.394;10.414;2023-01-20T06:36:05;1.70;91.90
39519;DHT22;25200;53.394;10.414;2023-01-20T06:38:33;1.70;91.90
39519;DHT22;25200;53.394;10.414;2023-01-20T06:41:04;1.70;91.90
39519;DHT22;25200;53.394;10.414;2023-01-20T06:43:31;1.70;91.90
39519;DHT22;25200;53.394;10.414;2023-01-20T06:46:03;1.70;92.00
39519;DHT22;25200;53.394;10.414;2023-01-20T06:48:29;1.70;92.00
39519;DHT22;25200;53.394;10.414;2023-01-20T06:51:05;1.70;92.00
39519;DHT22;25200;53.394;10.414;2023-01-20T06:53:31;1.70;91.90
39519;DHT22;25200;53.394;10.414;2023-01-20T06:55:58;1.70;92.10
39519;DHT22;25200;53.394;10.414;2023-01-20T06:58:26;1.70;92.00
39519;DHT22;25200;53.394;10.414;2023-01-20T07:00:52;1.70;92.10
39519;DHT22;25200;53.394;10.414;2023-01-20T07:03:18;1.70;92.20
39519;DHT22;25200;53.394;10.414;2023-01-20T07:05:54;1.70;92.00
39519;DHT22;25200;53.394;10.414;2023-01-20T07:08:20;1.70;92.00
39519;DHT22;25200;53.394;10.414;2023-01-20T07:10:46;1.70;91.80
39519;DHT22;25200;53.394;10.414;2023-01-20T07:13:12;1.70;91.90
39519;DHT22;25200;53.394;10.414;2023-01-20T07:15:37;1.70;91.90
39519;DHT22;25200;53.394;10.414;2023-01-20T07:18:03;1.80;91.90
39519;DHT22;25200;53.394;10.414;2023-01-20T07:20:29;1.80;92.10
39519;DHT22;25200;53.394;10.414;2023-01-20T07:22:54;1.80;91.90
39519;DHT22;25200;53.394;10.414;2023-01-20T07:25:20;1.80;92.00
39519;DHT22;25200;53.394;10.414;2023-01-20T07:27:45;1.70;91.90
39519;DHT22;25200;53.394;10.414;2023-01-20T07:30:11;1.80;91.90
39519;DHT22;25200;53.394;10.414;2023-01-20T07:32:37;1.80;92.00
39519;DHT22;25200;53.394;10.414;2023-01-20T07:35:03;1.80;92.00
39519;DHT22;25200;53.394;10.414;2023-01-20T07:37:28;1.70;92.00
39519;DHT22;25200;53.394;10.414;2023-01-20T07:39:54;1.70;92.10
39519;DHT22;25200;53.394;10.414;2023-01-20T07:42:20;1.70;92.10
39519;DHT22;25200;53.394;10.414;2023-01-20T07:44:45;1.70;92.10
39519;DHT22;25200;53.394;10.414;2023-01-20T07:47:11;1.70;92.10
39519;DHT22;25200;53.394;10.414;2023-01-20T07:49:37;1.70;92.20
39519;DHT22;25200;53.394;10.414;2023-01-20T07:52:02;1.70;92.20
39519;DHT22;25200;53.394;10.414;2023-01-20T07:54:28;1.70;92.00
39519;DHT22;25200;53.394;10.414;2023-01-20T07:56:53;1.80;92.00
39519;DHT22;25200;53.394;10.414;2023-01-20T07:59:19;1.80;92.10
39519;DHT22;25200;53.394;10.414;2023-01-20T08:01:45;1.80;92.00
39519;DHT22;25200;53.394;10.414;2023-01-20T08:04:10;1.80;92.00
39519;DHT22;25200;53.394;10.414;2023-01-20T08:06:37;1.80;92.00
39519;DHT22;25200;53.394;10.414;2023-01-20T08:09:03;1.80;92.00
39519;DHT22;25200;53.394;10.414;2023-01-20T08:11:29;1.80;91.90
39519;DHT22;25200;53.394;10.414;2023-01-20T08:13:57;1.80;92.00
39519;DHT22;25200;53.394;10.414;2023-01-20T08:16:22;1.80;91.90
39519;DHT22;25200;53.394;10.414;2023-01-20T08:18:48;1.90;91.90
39519;DHT22;25200;53.394;10.414;2023-01-20T08:21:21;1.90;91.90
39519;DHT22;25200;53.394;10.414;2023-01-20T08:23:47;1.90;91.90
39519;DHT22;25200;53.394;10.414;2023-01-20T08:26:16;1.90;91.90
39519;DHT22;25200;53.394;10.414;2023-01-20T08:28:43;1.90;91.90
39519;DHT22;25200;53.394;10.414;2023-01-20T08:31:11;1.90;91.90
39519;DHT22;25200;53.394;10.414;2023-01-20T08:33:38;1.90;91.80
39519;DHT22;25200;53.394;10.414;2023-01-20T08:36:06;1.90;91.80
39519;DHT22;25200;53.394;10.414;2023-01-20T08:38:33;1.90;91.80
39519;DHT22;25200;53.394;10.414;2023-01-20T08:40:59;1.90;91.90
39519;DHT22;25200;53.394;10.414;2023-01-20T08:43:25;1.90;91.90
39519;DHT22;25200;53.394;10.414;2023-01-20T08:45:58;1.90;92.00
39519;DHT22;25200;53.394;10.414;2023-01-20T08:48:24;1.90;91.90
39519;DHT22;25200;53.394;10.414;2023-01-20T08:50:49;1.90;91.90
39519;DHT22;25200;53.394;10.414;2023-01-20T08:53:15;1.90;91.90
39519;DHT22;25200;53.394;10.414;2023-01-20T08:55:41;1.90;92.00
39519;DHT22;25200;53.394;10.414;2023-01-20T08:58:06;1.90;92.20
39519;DHT22;25200;53.394;10.414;2023-01-20T09:00:32;1.90;91.90
39519;DHT22;25200;53.394;10.414;2023-01-20T09:02:58;1.90;91.90
39519;DHT22;25200;53.394;10.414;2023-01-20T09:05:23;1.90;91.90
39519;DHT22;25200;53.394;10.414;2023-01-20T09:07:49;1.90;91.90
39519;DHT22;25200;53.394;10.414;2023-01-20T09:10:15;2.00;91.90
39519;DHT22;25200;53.394;10.414;2023-01-20T09:12:40;2.00;91.90
39519;DHT22;25200;53.394;10.414;2023-01-20T09:15:06;1.90;92.20
39519;DHT22;25200;53.394;10.414;2023-01-20T09:17:34;2.00;92.10
39519;DHT22;25200;53.394;10.414;2023-01-20T09:20:00;1.90;92.00
39519;DHT22;25200;53.394;10.414;2023-01-20T09:22:26;2.00;92.00
39519;DHT22;25200;53.394;10.414;2023-01-20T09:24:51;2.00;91.90
39519;DHT22;25200;53.394;10.414;2023-01-20T09:27:17;2.00;91.90
39519;DHT22;25200;53.394;10.414;2023-01-20T09:29:42;2.00;91.90
39519;DHT22;25200;53.394;10.414;2023-01-20T09:32:10;2.00;92.00
39519;DHT22;25200;53.394;10.414;2023-01-20T09:34:37;2.00;91.90
39519;DHT22;25200;53.394;10.414;2023-01-20T09:37:03;2.00;91.90
39519;DHT22;25200;53.394;10.414;2023-01-20T09:39:48;2.00;91.90
39519;DHT22;25200;53.394;10.414;2023-01-20T09:42:43;2.00;91.90
39519;DHT22;25200;53.394;10.414;2023-01-20T09:52:02;2.00;91.90
39519;DHT22;25200;53.394;10.414;2023-01-20T09:54:58;2.00;92.00
39519;DHT22;25200;53.394;10.414;2023-01-20T09:57:30;2.00;91.90
39519;DHT22;25200;53.394;10.414;2023-01-20T10:00:07;2.00;92.00
39519;DHT22;25200;53.394;10.414;2023-01-20T10:02:35;2.00;92.00
39519;DHT22;25200;53.394;10.414;2023-01-20T10:05:12;2.00;91.90
39519;DHT22;25200;53.394;10.414;2023-01-20T10:07:55;2.00;92.00
39519;DHT22;25200;53.394;10.414;2023-01-20T10:13:20;2.10;92.00
39519;DHT22;25200;53.394;10.414;2023-01-20T10:15:55;2.00;91.90
39519;DHT22;25200;53.394;10.414;2023-01-20T10:18:50;2.10;92.00
39519;DHT22;25200;53.394;10.414;2023-01-20T10:21:24;2.10;92.00
39519;DHT22;25200;53.394;10.414;2023-01-20T10:23:55;2.10;92.00
39519;DHT22;25200;53.394;10.414;2023-01-20T10:26:31;2.10;92.00
39519;DHT22;25200;53.394;10.414;2023-01-20T10:29:00;2.20;91.90
39519;DHT22;25200;53.394;10.414;2023-01-20T10:31:28;2.20;92.00
39519;DHT22;25200;53.394;10.414;2023-01-20T10:33:59;2.20;92.00
39519;DHT22;25200;53.394;10.414;2023-01-20T10:36:29;2.20;92.00
39519;DHT22;25200;53.394;10.414;2023-01-20T10:39:00;2.30;92.00
39519;DHT22;25200;53.394;10.414;2023-01-20T10:41:59;2.30;91.90
39519;DHT22;25200;53.394;10.414;2023-01-20T10:44:26;2.40;91.90
39519;DHT22;25200;53.394;10.414;2023-01-20T10:55:38;2.50;91.90
39519;DHT22;25200;53.394;10.414;2023-01-20T10:58:33;2.50;91.80
39519;DHT22;25200;53.394;10.414;2023-01-20T11:01:03;2.60;91.80
39519;DHT22;25200;53.394;10.414;2023-01-20T11:03:34;2.60;91.80
39519;DHT22;25200;53.394;10.414;2023-01-20T11:06:00;2.60;91.80
39519;DHT22;25200;53.394;10.414;2023-01-20T11:08:28;2.60;91.80
39519;DHT22;25200;53.394;10.414;2023-01-20T11:11:17;2.70;91.80
39519;DHT22;25200;53.394;10.414;2023-01-20T11:13:43;2.70;91.80
39519;DHT22;25200;53.394;10.414;2023-01-20T11:16:20;2.70;91.80
39519;DHT22;25200;53.394;10.414;2023-01-20T11:18:59;2.70;91.70
39519;DHT22;25200;53.394;10.414;2023-01-20T11:21:27;2.70;91.80
39519;DHT22;25200;53.394;10.414;2023-01-20T11:23:54;2.80;91.80
39519;DHT22;25200;53.394;10.414;2023-01-20T11:31:42;2.90;91.60
39519;DHT22;25200;53.394;10.414;2023-01-20T11:34:34;2.90;91.70
39519;DHT22;25200;53.394;10.414;2023-01-20T11:39:36;3.00;91.70
39519;DHT22;25200;53.394;10.414;2023-01-20T11:44:49;3.00;91.70
39519;DHT22;25200;53.394;10.414;2023-01-20T11:47:36;3.10;91.60
39519;DHT22;25200;53.394;10.414;2023-01-20T11:52:39;3.10;91.60
39519;DHT22;25200;53.394;10.414;2023-01-20T11:55:08;3.10;91.60
39519;DHT22;25200;53.394;10.414;2023-01-20T12:06:22;3.20;91.80
39519;DHT22;25200;53.394;10.414;2023-01-20T12:08:53;3.30;91.80
39519;DHT22;25200;53.394;10.414;2023-01-20T12:11:30;3.30;91.80
39519;DHT22;25200;53.394;10.414;2023-01-20T12:16:58;3.30;91.80
39519;DHT22;25200;53.394;10.414;2023-01-20T12:22:43;3.40;91.80
39519;DHT22;25200;53.394;10.414;2023-01-20T12:25:22;3.40;91.90
39519;DHT22;25200;53.394;10.414;2023-01-20T12:27:53;3.50;92.20
39519;DHT22;25200;53.394;10.414;2023-01-20T12:30:53;3.50;91.90
39519;DHT22;25200;53.394;10.414;2023-01-20T12:33:32;3.50;91.90
39519;DHT22;25200;53.394;10.414;2023-01-20T12:44:22;3.60;91.90
39519;DHT22;25200;53.394;10.414;2023-01-20T12:46:56;3.60;91.90
39519;DHT22;25200;53.394;10.414;2023-01-20T12:57:42;3.60;91.90
39519;DHT22;25200;53.394;10.414;2023-01-20T13:11:10;3.40;91.90
39519;DHT22;25200;53.394;10.414;2023-01-20T13:13:56;3.40;91.90
39519;DHT22;25200;53.394;10.414;2023-01-20T13:16:38;3.40;92.00
39519;DHT22;25200;53.394;10.414;2023-01-20T13:21:47;3.30;92.00
39519;DHT22;25200;53.394;10.414;2023-01-20T13:24:16;3.30;92.00
39519;DHT22;25200;53.394;10.414;2023-01-20T13:26:45;3.30;92.10
39519;DHT22;25200;53.394;10.414;2023-01-20T13:29:23;3.30;92.10
39519;DHT22;25200;53.394;10.414;2023-01-20T13:32:34;3.30;92.10
39519;DHT22;25200;53.394;10.414;2023-01-20T13:35:01;3.30;92.10
39519;DHT22;25200;53.394;10.414;2023-01-20T13:37:36;3.30;92.10
39519;DHT22;25200;53.394;10.414;2023-01-20T13:40:03;3.30;92.20
39519;DHT22;25200;53.394;10.414;2023-01-20T13:53:00;3.30;92.10
39519;DHT22;25200;53.394;10.414;2023-01-20T13:57:52;3.30;92.10
39519;DHT22;25200;53.394;10.414;2023-01-20T14:00:19;3.30;92.00
39519;DHT22;25200;53.394;10.414;2023-01-20T14:02:45;3.40;91.90
39519;DHT22;25200;53.394;10.414;2023-01-20T14:05:27;3.30;91.90
39519;DHT22;25200;53.394;10.414;2023-01-20T14:07:54;3.30;92.00
39519;DHT22;25200;53.394;10.414;2023-01-20T14:10:19;3.30;92.00
39519;DHT22;25200;53.394;10.414;2023-01-20T14:12:45;3.30;92.00
39519;DHT22;25200;53.394;10.414;2023-01-20T14:15:29;3.30;91.90
39519;DHT22;25200;53.394;10.414;2023-01-20T14:17:57;3.30;92.00
39519;DHT22;25200;53.394;10.414;2023-01-20T14:20:24;3.20;92.00
39519;DHT22;25200;53.394;10.414;2023-01-20T14:22:51;3.20;92.10
39519;DHT22;25200;53.394;10.414;2023-01-20T14:25:24;3.20;92.10
39519;DHT22;25200;53.394;10.414;2023-01-20T14:27:50;3.20;92.10
39519;DHT22;25200;53.394;10.414;2023-01-20T14:30:25;3.10;92.10
39519;DHT22;25200;53.394;10.414;2023-01-20T14:32:52;3.10;92.10
39519;DHT22;25200;53.394;10.414;2023-01-20T14:35:25;3.10;92.10
39519;DHT22;25200;53.394;10.414;2023-01-20T14:37:52;3.10;92.10
39519;DHT22;25200;53.394;10.414;2023-01-20T14:42:59;3.00;92.00
39519;DHT22;25200;53.394;10.414;2023-01-20T14:45:28;3.00;92.00
39519;DHT22;25200;53.394;10.414;2023-01-20T14:47:55;3.00;92.10
39519;DHT22;25200;53.394;10.414;2023-01-20T14:50:22;2.90;92.10
39519;DHT22;25200;53.394;10.414;2023-01-20T14:52:48;2.90;92.10
39519;DHT22;25200;53.394;10.414;2023-01-20T14:55:36;2.90;92.10
39519;DHT22;25200;53.394;10.414;2023-01-20T14:58:15;2.90;92.10
39519;DHT22;25200;53.394;10.414;2023-01-20T15:00:43;2.80;92.10
39519;DHT22;25200;53.394;10.414;2023-01-20T15:05:59;2.80;92.10
39519;DHT22;25200;53.394;10.414;2023-01-20T15:11:24;2.80;92.10
39519;DHT22;25200;53.394;10.414;2023-01-20T15:21:52;2.80;92.00
39519;DHT22;25200;53.394;10.414;2023-01-20T15:24:19;2.80;91.80
39519;DHT22;25200;53.394;10.414;2023-01-20T15:26:46;2.80;91.90
39519;DHT22;25200;53.394;10.414;2023-01-20T15:29:32;2.80;91.80
39519;DHT22;25200;53.394;10.414;2023-01-20T15:32:00;2.80;91.80
39519;DHT22;25200;53.394;10.414;2023-01-20T15:34:26;2.80;91.70
39519;DHT22;25200;53.394;10.414;2023-01-20T15:36:53;2.80;91.70
39519;DHT22;25200;53.394;10.414;2023-01-20T15:39:24;2.70;91.80
39519;DHT22;25200;53.394;10.414;2023-01-20T15:41:53;2.70;91.70
39519;DHT22;25200;53.394;10.414;2023-01-20T15:44:19;2.70;91.70
39519;DHT22;25200;53.394;10.414;2023-01-20T15:46:46;2.70;91.70
39519;DHT22;25200;53.394;10.414;2023-01-20T15:49:13;2.60;91.60
39519;DHT22;25200;53.394;10.414;2023-01-20T15:51:42;2.50;91.60
39519;DHT22;25200;53.394;10.414;2023-01-20T15:54:08;2.50;91.70
39519;DHT22;25200;53.394;10.414;2023-01-20T15:56:34;2.40;91.60
39519;DHT22;25200;53.394;10.414;2023-01-20T15:59:07;2.40;91.60
39519;DHT22;25200;53.394;10.414;2023-01-20T16:01:34;2.30;91.60
39519;DHT22;25200;53.394;10.414;2023-01-20T16:04:00;2.30;91.60
39519;DHT22;25200;53.394;10.414;2023-01-20T16:06:31;2.20;91.60
39519;DHT22;25200;53.394;10.414;2023-01-20T16:08:59;2.20;91.70
39519;DHT22;25200;53.394;10.414;2023-01-20T16:11:25;2.10;91.60
39519;DHT22;25200;53.394;10.414;2023-01-20T16:13:51;2.10;91.70
39519;DHT22;25200;53.394;10.414;2023-01-20T16:16:19;2.10;91.70
39519;DHT22;25200;53.394;10.414;2023-01-20T16:18:46;2.00;91.70
39519;DHT22;25200;53.394;10.414;2023-01-20T16:21:14;2.00;91.80
39519;DHT22;25200;53.394;10.414;2023-01-20T16:23:40;2.00;91.80
39519;DHT22;25200;53.394;10.414;2023-01-20T16:26:24;2.00;91.70
39519;DHT22;25200;53.394;10.414;2023-01-20T16:28:51;2.00;91.70
39519;DHT22;25200;53.394;10.414;2023-01-20T16:31:18;2.00;91.70
39519;DHT22;25200;53.394;10.414;2023-01-20T16:33:44;1.90;91.70
39519;DHT22;25200;53.394;10.414;2023-01-20T16:36:12;1.90;91.60
39519;DHT22;25200;53.394;10.414;2023-01-20T16:38:38;1.90;91.70
39519;DHT22;25200;53.394;10.414;2023-01-20T16:41:22;1.90;91.70
39519;DHT22;25200;53.394;10.414;2023-01-20T16:43:49;1.90;91.70
39519;DHT22;25200;53.394;10.414;2023-01-20T16:46:17;1.90;91.70
39519;DHT22;25200;53.394;10.414;2023-01-20T16:48:43;1.90;91.70
39519;DHT22;25200;53.394;10.414;2023-01-20T16:51:20;1.90;91.70
39519;DHT22;25200;53.394;10.414;2023-01-20T16:53:47;1.90;91.70
39519;DHT22;25200;53.394;10.414;2023-01-20T16:56:20;1.90;91.80
39519;DHT22;25200;53.394;10.414;2023-01-20T16:58:47;1.90;91.80
39519;DHT22;25200;53.394;10.414;2023-01-20T17:01:14;1.90;91.80
39519;DHT22;25200;53.394;10.414;2023-01-20T17:03:45;1.90;91.80
39519;DHT22;25200;53.394;10.414;2023-01-20T17:06:15;1.90;91.80
39519;DHT22;25200;53.394;10.414;2023-01-20T17:08:44;1.90;91.80
39519;DHT22;25200;53.394;10.414;2023-01-20T17:11:15;2.00;91.90
39519;DHT22;25200;53.394;10.414;2023-01-20T17:13:41;1.90;91.80
39519;DHT22;25200;53.394;10.414;2023-01-20T17:16:06;2.00;91.90
39519;DHT22;25200;53.394;10.414;2023-01-20T17:18:32;1.90;91.70
39519;DHT22;25200;53.394;10.414;2023-01-20T17:21:03;1.90;91.70
39519;DHT22;25200;53.394;10.414;2023-01-20T17:23:29;1.90;91.70
39519;DHT22;25200;53.394;10.414;2023-01-20T17:25:55;1.90;91.70
39519;DHT22;25200;53.394;10.414;2023-01-20T17:28:21;1.80;91.60
39519;DHT22;25200;53.394;10.414;2023-01-20T17:30:46;1.80;91.60
39519;DHT22;25200;53.394;10.414;2023-01-20T17:33:12;1.80;91.60
39519;DHT22;25200;53.394;10.414;2023-01-20T17:35:38;1.70;91.60
39519;DHT22;25200;53.394;10.414;2023-01-20T17:38:03;1.70;91.60
39519;DHT22;25200;53.394;10.414;2023-01-20T17:40:29;1.70;91.50
39519;DHT22;25200;53.394;10.414;2023-01-20T17:42:55;1.60;91.60
39519;DHT22;25200;53.394;10.414;2023-01-20T17:45:21;1.60;91.60
39519;DHT22;25200;53.394;10.414;2023-01-20T17:47:50;1.60;91.70
39519;DHT22;25200;53.394;10.414;2023-01-20T17:50:16;1.60;91.60
39519;DHT22;25200;53.394;10.414;2023-01-20T17:52:42;1.60;91.60
39519;DHT22;25200;53.394;10.414;2023-01-20T17:55:08;1.60;91.60
39519;DHT22;25200;53.394;10.414;2023-01-20T17:57:34;1.50;91.60
39519;DHT22;25200;53.394;10.414;2023-01-20T17:59:59;1.50;91.60
39519;DHT22;25200;53.394;10.414;2023-01-20T18:02:25;1.50;91.70
39519;DHT22;25200;53.394;10.414;2023-01-20T18:04:51;1.50;91.70
39519;DHT22;25200;53.394;10.414;2023-01-20T18:07:16;1.50;91.80